Time,TemperatureF,DewpointF,PressureIn,WindDirection,WindDirectionDegrees,WindSpeedMPH,WindSpeedGustMPH,Humidity,HourlyPrecipIn,Conditions,Clouds,dailyrainin,SoftwareType,DateUTC
2013-09-08 00:01:00,62.7,45.8,29.81,NW,325,0.0,0.0,54,0.00,,,0.00,Wunderground v.1.15,2013-09-08 07:01:00,
2013-09-08 00:07:00,62.3,45.9,29.82,NW,325,0.0,0.0,55,0.00,,,0.00,Wunderground v.1.15,2013-09-08 07:07:00,
2013-09-08 00:12:00,62.0,45.6,29.82,NW,325,0.0,0.0,55,0.00,,,0.00,Wunderground v.1.15,2013-09-08 07:12:00,
2013-09-08 00:18:00,61.8,45.9,29.82,NW,325,0.0,0.0,56,0.00,,,0.00,Wunderground v.1.15,2013-09-08 07:18:00,
2013-09-08 00:24:00,61.5,45.7,29.82,NW,325,0.0,0.0,56,0.00,,,0.00,Wunderground v.1.15,2013-09-08 07:24:00,
2013-09-08 00:31:00,61.4,46.0,29.82,NW,325,0.0,0.0,57,0.00,,,0.00,Wunderground v.1.15,2013-09-08 07:31:00,
2013-09-08 00:37:00,61.2,45.8,29.81,NW,325,0.0,0.0,57,0.00,,,0.00,Wunderground v.1.15,2013-09-08 07:37:00,
2013-09-08 00:43:00,60.8,45.5,29.81,NW,325,0.0,0.0,57,0.00,,,0.00,Wunderground v.1.15,2013-09-08 07:43:00,
2013-09-08 00:48:00,60.6,45.7,29.81,NW,325,0.0,0.0,58,0.00,,,0.00,Wunderground v.1.15,2013-09-08 07:48:00,
2013-09-08 00:54:00,60.5,46.1,29.82,NW,325,0.0,0.0,59,0.00,,,0.00,Wunderground v.1.15,2013-09-08 07:54:00,
2013-09-08 01:00:00,60.3,45.9,29.82,NW,325,0.0,0.0,59,0.00,,,0.00,Wunderground v.1.15,2013-09-08 08:00:00,
2013-09-08 01:07:00,60.0,46.1,29.82,NW,325,0.0,0.0,60,0.00,,,0.00,Wunderground v.1.15,2013-09-08 08:07:00,
2013-09-08 01:12:00,59.6,46.1,29.82,NW,325,0.0,0.0,61,0.00,,,0.00,Wunderground v.1.15,2013-09-08 08:12:00,
2013-09-08 01:18:00,59.4,46.4,29.82,NW,325,0.0,0.0,62,0.00,,,0.00,Wunderground v.1.15,2013-09-08 08:18:00,
2013-09-08 01:24:00,59.2,46.2,29.82,NW,325,0.0,0.0,62,0.00,,,0.00,Wunderground v.1.15,2013-09-08 08:24:00,
2013-09-08 01:31:00,59.1,46.1,29.82,NW,325,0.0,0.0,62,0.00,,,0.00,Wunderground v.1.15,2013-09-08 08:31:00,
2013-09-08 01:37:00,59.0,46.0,29.82,NW,325,0.0,0.0,62,0.00,,,0.00,Wunderground v.1.15,2013-09-08 08:37:00,
2013-09-08 01:42:00,59.0,46.4,29.82,NW,325,0.0,0.0,63,0.00,,,0.00,Wunderground v.1.15,2013-09-08 08:42:00,
2013-09-08 01:48:00,58.9,46.7,29.82,NW,325,0.0,0.0,64,0.00,,,0.00,Wunderground v.1.15,2013-09-08 08:48:00,
2013-09-08 01:54:00,58.6,46.5,29.82,NW,325,0.0,0.0,64,0.00,,,0.00,Wunderground v.1.15,2013-09-08 08:54:00,
2013-09-08 02:00:00,58.4,46.3,29.82,NW,325,0.0,0.0,64,0.00,,,0.00,Wunderground v.1.15,2013-09-08 09:00:00,
2013-09-08 02:07:00,58.4,46.3,29.82,NW,325,0.0,0.0,64,0.00,,,0.00,Wunderground v.1.15,2013-09-08 09:07:00,
2013-09-08 02:12:00,58.3,46.2,29.82,NW,325,0.0,0.0,64,0.00,,,0.00,Wunderground v.1.15,2013-09-08 09:12:00,
2013-09-08 02:18:00,58.1,46.4,29.82,NW,325,0.0,0.0,65,0.00,,,0.00,Wunderground v.1.15,2013-09-08 09:18:00,
2013-09-08 02:24:00,58.0,46.3,29.82,NW,325,0.0,0.0,65,0.00,,,0.00,Wunderground v.1.15,2013-09-08 09:24:00,
2013-09-08 02:30:00,57.8,46.1,29.82,NW,325,0.0,0.0,65,0.00,,,0.00,Wunderground v.1.15,2013-09-08 09:30:00,
2013-09-08 02:36:00,57.7,46.0,29.82,NW,325,0.0,0.0,65,0.00,,,0.00,Wunderground v.1.15,2013-09-08 09:36:00,
2013-09-08 02:42:00,57.5,46.6,29.82,NW,325,0.0,0.0,67,0.00,,,0.00,Wunderground v.1.15,2013-09-08 09:42:00,
2013-09-08 02:48:00,57.3,46.8,29.82,NW,325,0.0,0.0,68,0.00,,,0.00,Wunderground v.1.15,2013-09-08 09:48:00,
2013-09-08 02:54:00,57.0,46.9,29.81,NW,325,0.0,0.0,69,0.00,,,0.00,Wunderground v.1.15,2013-09-08 09:54:00,
2013-09-08 03:00:00,56.7,46.6,29.81,NW,325,0.0,0.0,69,0.00,,,0.00,Wunderground v.1.15,2013-09-08 10:00:00,
2013-09-08 03:07:00,56.5,46.8,29.81,NW,325,0.0,0.0,70,0.00,,,0.00,Wunderground v.1.15,2013-09-08 10:07:00,
2013-09-08 03:12:00,56.3,46.6,29.82,NW,325,0.0,0.0,70,0.00,,,0.00,Wunderground v.1.15,2013-09-08 10:12:00,
2013-09-08 03:18:00,56.1,46.4,29.82,NW,325,0.0,0.0,70,0.00,,,0.00,Wunderground v.1.15,2013-09-08 10:18:00,
2013-09-08 03:24:00,56.0,46.7,29.81,NW,325,0.0,0.0,71,0.00,,,0.00,Wunderground v.1.15,2013-09-08 10:24:00,
2013-09-08 03:30:00,56.0,47.1,29.82,NW,325,0.0,0.0,72,0.00,,,0.00,Wunderground v.1.15,2013-09-08 10:30:00,
2013-09-08 03:37:00,55.9,47.0,29.82,NW,325,0.0,0.0,72,0.00,,,0.00,Wunderground v.1.15,2013-09-08 10:37:00,
2013-09-08 03:42:00,55.9,47.0,29.81,NW,325,0.0,0.0,72,0.00,,,0.00,Wunderground v.1.15,2013-09-08 10:42:00,
2013-09-08 03:48:00,55.8,46.5,29.81,NW,325,0.0,0.0,71,0.00,,,0.00,Wunderground v.1.15,2013-09-08 10:48:00,
2013-09-08 03:54:00,55.9,48.4,29.81,NW,325,0.0,0.0,76,0.00,,,0.00,Wunderground v.1.15,2013-09-08 10:54:00,
2013-09-08 04:00:00,56.2,48.4,29.81,NW,325,0.0,0.0,75,0.00,,,0.00,Wunderground v.1.15,2013-09-08 11:00:00,
2013-09-08 04:06:00,56.8,50.7,29.81,NW,325,0.0,0.0,80,0.00,,,0.00,Wunderground v.1.15,2013-09-08 11:06:00,
2013-09-08 04:12:00,57.0,49.2,29.81,NW,325,0.0,0.0,75,0.00,,,0.00,Wunderground v.1.15,2013-09-08 11:12:00,
2013-09-08 04:20:00,56.9,48.3,29.81,NW,325,0.0,0.0,73,0.00,,,0.00,Wunderground v.1.15,2013-09-08 11:20:00,
2013-09-08 04:27:00,56.8,48.2,29.81,NW,325,0.0,0.0,73,0.00,,,0.00,Wunderground v.1.15,2013-09-08 11:27:00,
2013-09-08 04:32:00,56.5,47.6,29.81,NW,325,0.0,0.0,72,0.00,,,0.00,Wunderground v.1.15,2013-09-08 11:32:00,
2013-09-08 04:38:00,56.2,47.7,29.81,NW,325,0.0,0.0,73,0.00,,,0.00,Wunderground v.1.15,2013-09-08 11:38:00,
2013-09-08 04:44:00,55.9,47.7,29.81,NW,325,0.0,0.0,74,0.00,,,0.00,Wunderground v.1.15,2013-09-08 11:44:00,
2013-09-08 04:50:00,55.7,47.5,29.81,NW,325,0.0,0.0,74,0.00,,,0.00,Wunderground v.1.15,2013-09-08 11:50:00,
2013-09-08 04:56:00,55.5,47.3,29.81,NW,325,0.0,0.0,74,0.00,,,0.00,Wunderground v.1.15,2013-09-08 11:56:00,
2013-09-08 05:02:00,55.1,47.0,29.82,NW,325,0.0,0.0,74,0.00,,,0.00,Wunderground v.1.15,2013-09-08 12:02:00,
2013-09-08 05:08:00,54.8,47.0,29.82,NW,325,0.0,0.0,75,0.00,,,0.00,Wunderground v.1.15,2013-09-08 12:08:00,
2013-09-08 05:14:00,54.5,46.7,29.82,NW,325,0.0,0.0,75,0.00,,,0.00,Wunderground v.1.15,2013-09-08 12:14:00,
2013-09-08 05:20:00,54.2,46.8,29.82,NW,325,0.0,0.0,76,0.00,,,0.00,Wunderground v.1.15,2013-09-08 12:20:00,
2013-09-08 05:26:00,54.0,46.6,29.82,NW,325,0.0,0.0,76,0.00,,,0.00,Wunderground v.1.15,2013-09-08 12:26:00,
2013-09-08 05:32:00,53.7,46.7,29.82,NW,325,0.0,0.0,77,0.00,,,0.00,Wunderground v.1.15,2013-09-08 12:32:00,
2013-09-08 05:38:00,53.6,46.6,29.82,NW,325,0.0,0.0,77,0.00,,,0.00,Wunderground v.1.15,2013-09-08 12:38:00,
2013-09-08 05:44:00,53.5,46.5,29.82,NW,325,0.0,0.0,77,0.00,,,0.00,Wunderground v.1.15,2013-09-08 12:44:00,
2013-09-08 05:50:00,53.3,46.6,29.83,NW,325,0.0,0.0,78,0.00,,,0.00,Wunderground v.1.15,2013-09-08 12:50:00,
2013-09-08 05:56:00,53.1,46.4,29.83,NW,325,0.0,0.0,78,0.00,,,0.00,Wunderground v.1.15,2013-09-08 12:56:00,
2013-09-08 06:02:00,53.0,46.3,29.83,NW,325,0.0,0.0,78,0.00,,,0.00,Wunderground v.1.15,2013-09-08 13:02:00,
2013-09-08 06:08:00,52.9,46.2,29.83,NW,325,0.0,0.0,78,0.00,,,0.00,Wunderground v.1.15,2013-09-08 13:08:00,
2013-09-08 06:14:00,52.8,46.1,29.83,NW,325,0.0,0.0,78,0.00,,,0.00,Wunderground v.1.15,2013-09-08 13:14:00,
2013-09-08 06:20:00,52.6,45.9,29.83,NW,325,0.0,0.0,78,0.00,,,0.00,Wunderground v.1.15,2013-09-08 13:20:00,
2013-09-08 06:26:00,52.3,45.6,29.83,NW,325,0.0,0.0,78,0.00,,,0.00,Wunderground v.1.15,2013-09-08 13:26:00,
2013-09-08 06:32:00,52.2,45.9,29.83,NW,325,0.0,0.0,79,0.00,,,0.00,Wunderground v.1.15,2013-09-08 13:32:00,
2013-09-08 06:38:00,52.2,45.9,29.83,NW,325,0.0,0.0,79,0.00,,,0.00,Wunderground v.1.15,2013-09-08 13:38:00,
2013-09-08 06:44:00,52.2,45.9,29.83,NW,325,0.0,0.0,79,0.00,,,0.00,Wunderground v.1.15,2013-09-08 13:44:00,
2013-09-08 06:50:00,52.2,46.2,29.83,NW,325,0.0,0.0,80,0.00,,,0.00,Wunderground v.1.15,2013-09-08 13:50:00,
2013-09-08 06:56:00,52.1,45.8,29.83,NW,325,0.0,0.0,79,0.00,,,0.00,Wunderground v.1.15,2013-09-08 13:56:00,
2013-09-08 07:02:00,52.0,46.0,29.84,NW,325,0.0,0.0,80,0.00,,,0.00,Wunderground v.1.15,2013-09-08 14:02:00,
2013-09-08 07:08:00,52.0,46.0,29.84,NW,325,0.0,0.0,80,0.00,,,0.00,Wunderground v.1.15,2013-09-08 14:08:00,
2013-09-08 07:14:00,52.1,46.4,29.84,NW,325,0.0,0.0,81,0.00,,,0.00,Wunderground v.1.15,2013-09-08 14:14:00,
2013-09-08 07:20:00,52.2,46.5,29.84,NW,325,0.0,0.0,81,0.00,,,0.00,Wunderground v.1.15,2013-09-08 14:20:00,
2013-09-08 07:26:00,52.3,47.0,29.84,NW,325,0.0,0.0,82,0.00,,,0.00,Wunderground v.1.15,2013-09-08 14:26:00,
2013-09-08 07:32:00,52.5,47.2,29.84,NW,325,0.0,0.0,82,0.00,,,0.00,Wunderground v.1.15,2013-09-08 14:32:00,
2013-09-08 07:38:00,52.7,47.4,29.84,NW,325,0.0,0.0,82,0.00,,,0.00,Wunderground v.1.15,2013-09-08 14:38:00,
2013-09-08 07:44:00,53.0,47.7,29.84,NW,325,0.0,0.0,82,0.00,,,0.00,Wunderground v.1.15,2013-09-08 14:44:00,
2013-09-08 07:50:00,53.6,48.2,29.85,NW,325,0.0,0.0,82,0.00,,,0.00,Wunderground v.1.15,2013-09-08 14:50:00,
2013-09-08 07:56:00,54.5,49.1,29.84,NW,325,0.0,0.0,82,0.00,,,0.00,Wunderground v.1.15,2013-09-08 14:56:00,
2013-09-08 08:02:00,55.5,49.8,29.85,NW,325,0.0,0.0,81,0.00,,,0.00,Wunderground v.1.15,2013-09-08 15:02:00,
2013-09-08 08:08:00,56.7,50.6,29.84,NW,325,0.0,0.0,80,0.00,,,0.00,Wunderground v.1.15,2013-09-08 15:08:00,
2013-09-08 08:14:00,57.8,51.0,29.84,NW,325,0.0,0.0,78,0.00,,,0.00,Wunderground v.1.15,2013-09-08 15:14:00,
2013-09-08 08:20:00,59.0,51.4,29.84,NW,325,0.0,0.0,76,0.00,,,0.00,Wunderground v.1.15,2013-09-08 15:20:00,
2013-09-08 08:26:00,60.2,52.2,29.84,NW,325,0.0,0.0,75,0.00,,,0.00,Wunderground v.1.15,2013-09-08 15:26:00,
2013-09-08 08:32:00,61.1,53.1,29.84,NW,325,0.0,0.0,75,0.00,,,0.00,Wunderground v.1.15,2013-09-08 15:32:00,
2013-09-08 08:38:00,61.6,52.9,29.84,NW,325,0.0,0.0,73,0.00,,,0.00,Wunderground v.1.15,2013-09-08 15:38:00,
2013-09-08 08:44:00,62.0,52.9,29.84,NW,325,0.0,0.0,72,0.00,,,0.00,Wunderground v.1.15,2013-09-08 15:44:00,
2013-09-08 08:50:00,62.3,53.5,29.84,NW,325,0.0,0.0,73,0.00,,,0.00,Wunderground v.1.15,2013-09-08 15:50:00,
2013-09-08 08:56:00,62.7,53.9,29.84,NW,325,0.0,0.0,73,0.00,,,0.00,Wunderground v.1.15,2013-09-08 15:56:00,
2013-09-08 09:02:00,63.1,53.9,29.84,NW,325,0.0,0.0,72,0.00,,,0.00,Wunderground v.1.15,2013-09-08 16:02:00,
2013-09-08 09:08:00,63.6,54.0,29.84,NW,325,0.0,0.0,71,0.00,,,0.00,Wunderground v.1.15,2013-09-08 16:08:00,
2013-09-08 09:14:00,64.3,54.3,29.84,NW,325,0.0,0.0,70,0.00,,,0.00,Wunderground v.1.15,2013-09-08 16:14:00,
2013-09-08 09:20:00,65.1,54.3,29.84,NW,325,0.0,0.0,68,0.00,,,0.00,Wunderground v.1.15,2013-09-08 16:20:00,
2013-09-08 09:26:00,66.0,55.1,29.84,NW,325,0.0,0.0,68,0.00,,,0.00,Wunderground v.1.15,2013-09-08 16:26:00,
2013-09-08 09:32:00,66.9,54.7,29.84,NW,325,0.0,1.0,65,0.00,,,0.00,Wunderground v.1.15,2013-09-08 16:32:00,
2013-09-08 09:38:00,67.5,54.5,29.84,NW,326,0.0,1.0,63,0.00,,,0.00,Wunderground v.1.15,2013-09-08 16:38:00,
2013-09-08 09:44:00,68.3,55.2,29.83,NW,326,0.0,1.0,63,0.00,,,0.00,Wunderground v.1.15,2013-09-08 16:44:00,
2013-09-08 09:50:00,69.5,55.5,29.83,NW,326,0.0,1.0,61,0.00,,,0.00,Wunderground v.1.15,2013-09-08 16:50:00,
2013-09-08 09:56:00,70.6,55.6,29.83,NNW,331,0.0,1.0,59,0.00,,,0.00,Wunderground v.1.15,2013-09-08 16:56:00,
2013-09-08 10:02:00,71.3,55.8,29.83,NNW,331,0.0,1.0,58,0.00,,,0.00,Wunderground v.1.15,2013-09-08 17:02:00,
2013-09-08 10:08:00,72.3,56.2,29.83,NNW,331,0.0,1.0,57,0.00,,,0.00,Wunderground v.1.15,2013-09-08 17:08:00,
2013-09-08 10:14:00,73.6,56.9,29.83,NNW,331,0.0,1.0,56,0.00,,,0.00,Wunderground v.1.15,2013-09-08 17:14:00,
2013-09-08 10:20:00,74.9,56.6,29.83,NNW,331,0.0,1.0,53,0.00,,,0.00,Wunderground v.1.15,2013-09-08 17:20:00,
2013-09-08 10:26:00,75.8,56.4,29.83,NNW,331,0.0,1.0,51,0.00,,,0.00,Wunderground v.1.15,2013-09-08 17:26:00,
2013-09-08 10:32:00,76.1,55.0,29.82,NNW,331,0.0,0.0,48,0.00,,,0.00,Wunderground v.1.15,2013-09-08 17:32:00,
2013-09-08 10:38:00,76.6,56.6,29.82,NNW,331,0.0,0.0,50,0.00,,,0.00,Wunderground v.1.15,2013-09-08 17:38:00,
2013-09-08 10:44:00,78.1,57.4,29.82,NNW,331,0.0,0.0,49,0.00,,,0.00,Wunderground v.1.15,2013-09-08 17:44:00,
2013-09-08 10:50:00,79.7,57.1,29.82,NNW,331,0.0,0.0,46,0.00,,,0.00,Wunderground v.1.15,2013-09-08 17:50:00,
2013-09-08 10:56:00,81.2,57.8,29.82,NNW,331,0.0,0.0,45,0.00,,,0.00,Wunderground v.1.15,2013-09-08 17:56:00,
2013-09-08 11:02:00,82.5,58.4,29.82,West,263,0.0,0.0,44,0.00,,,0.00,Wunderground v.1.15,2013-09-08 18:02:00,
2013-09-08 11:08:00,83.4,59.8,29.82,SW,231,0.0,0.0,45,0.00,,,0.00,Wunderground v.1.15,2013-09-08 18:08:00,
2013-09-08 11:14:00,84.3,60.6,29.82,East,83,0.0,0.0,45,0.00,,,0.00,Wunderground v.1.15,2013-09-08 18:14:00,
2013-09-08 11:20:00,85.2,60.2,29.81,SE,146,0.0,0.0,43,0.00,,,0.00,Wunderground v.1.15,2013-09-08 18:20:00,
2013-09-08 11:26:00,85.9,60.1,29.81,SSW,211,0.0,1.0,42,0.00,,,0.00,Wunderground v.1.15,2013-09-08 18:26:00,
2013-09-08 11:32:00,86.0,59.6,29.81,SSW,196,0.0,0.0,41,0.00,,,0.00,Wunderground v.1.15,2013-09-08 18:32:00,
2013-09-08 11:38:00,86.2,59.0,29.80,NE,47,0.0,1.0,40,0.00,,,0.00,Wunderground v.1.15,2013-09-08 18:38:00,
2013-09-08 11:44:00,85.8,58.0,29.80,ESE,120,0.0,1.0,39,0.00,,,0.00,Wunderground v.1.15,2013-09-08 18:44:00,
2013-09-08 11:50:00,86.0,60.2,29.80,ESE,123,0.0,0.0,42,0.00,,,0.00,Wunderground v.1.15,2013-09-08 18:50:00,
2013-09-08 11:56:00,86.3,59.8,29.79,SE,145,0.0,0.0,41,0.00,,,0.00,Wunderground v.1.15,2013-09-08 18:56:00,
2013-09-08 12:08:00,86.5,60.7,29.79,SSE,148,0.0,0.0,42,0.00,,,0.00,Wunderground v.1.15,2013-09-08 19:08:00,
2013-09-08 12:14:00,86.5,59.3,29.79,SE,145,0.0,0.0,40,0.00,,,0.00,Wunderground v.1.15,2013-09-08 19:14:00,
2013-09-08 12:20:00,86.5,60.0,29.79,SE,146,0.0,0.0,41,0.00,,,0.00,Wunderground v.1.15,2013-09-08 19:20:00,
2013-09-08 12:26:00,86.7,60.2,29.79,SSE,148,0.0,0.0,41,0.00,,,0.00,Wunderground v.1.15,2013-09-08 19:26:00,
2013-09-08 12:32:00,87.0,61.1,29.78,SSE,149,0.0,0.0,42,0.00,,,0.00,Wunderground v.1.15,2013-09-08 19:32:00,
2013-09-08 12:38:00,87.4,60.8,29.78,SE,127,0.0,0.0,41,0.00,,,0.00,Wunderground v.1.15,2013-09-08 19:38:00,
2013-09-08 12:44:00,87.9,60.6,29.78,SE,128,0.0,0.0,40,0.00,,,0.00,Wunderground v.1.15,2013-09-08 19:44:00,
2013-09-08 12:50:00,88.4,61.0,29.78,SE,131,0.0,0.0,40,0.00,,,0.00,Wunderground v.1.15,2013-09-08 19:50:00,
2013-09-08 12:56:00,89.0,60.8,29.77,SE,133,0.0,0.0,39,0.00,,,0.00,Wunderground v.1.15,2013-09-08 19:56:00,
2013-09-08 13:02:00,89.5,60.5,29.77,SE,133,0.0,0.0,38,0.00,,,0.00,Wunderground v.1.15,2013-09-08 20:02:00,
2013-09-08 13:08:00,89.9,60.9,29.77,SE,133,0.0,0.0,38,0.00,,,0.00,Wunderground v.1.15,2013-09-08 20:08:00,
2013-09-08 13:14:00,90.4,60.6,29.76,SE,133,0.0,0.0,37,0.00,,,0.00,Wunderground v.1.15,2013-09-08 20:14:00,
2013-09-08 13:20:00,90.9,60.3,29.76,SE,133,0.0,0.0,36,0.00,,,0.00,Wunderground v.1.15,2013-09-08 20:20:00,
2013-09-08 13:26:00,91.3,60.6,29.76,SE,133,0.0,0.0,36,0.00,,,0.00,Wunderground v.1.15,2013-09-08 20:26:00,
2013-09-08 13:32:00,91.8,61.0,29.76,SE,136,0.0,0.0,36,0.00,,,0.00,Wunderground v.1.15,2013-09-08 20:32:00,
2013-09-08 13:38:00,92.2,60.6,29.76,SE,136,0.0,0.0,35,0.00,,,0.00,Wunderground v.1.15,2013-09-08 20:38:00,
2013-09-08 13:44:00,92.6,61.0,29.75,SE,138,0.0,3.0,35,0.00,,,0.00,Wunderground v.1.15,2013-09-08 20:44:00,
2013-09-08 13:50:00,93.1,60.6,29.75,SE,138,0.0,0.0,34,0.00,,,0.00,Wunderground v.1.15,2013-09-08 20:50:00,
2013-09-08 13:56:00,93.7,61.1,29.75,SE,140,0.0,1.0,34,0.00,,,0.00,Wunderground v.1.15,2013-09-08 20:56:00,
2013-09-08 14:02:00,94.2,58.9,29.75,SE,140,0.0,0.0,31,0.00,,,0.00,Wunderground v.1.15,2013-09-08 21:02:00,
2013-09-08 14:08:00,94.7,60.3,29.75,SE,140,0.0,1.0,32,0.00,,,0.00,Wunderground v.1.15,2013-09-08 21:08:00,
2013-09-08 14:13:00,95.2,60.7,29.74,SE,140,0.0,0.0,32,0.00,,,0.00,Wunderground v.1.15,2013-09-08 21:13:00,
2013-09-08 14:20:00,95.8,60.3,29.74,SE,140,0.0,0.0,31,0.00,,,0.00,Wunderground v.1.15,2013-09-08 21:20:00,
2013-09-08 14:26:00,96.8,62.1,29.73,SSE,147,0.0,0.0,32,0.00,,,0.00,Wunderground v.1.15,2013-09-08 21:26:00,
2013-09-08 14:32:00,97.8,63.8,29.73,SSE,147,0.0,0.0,33,0.00,,,0.00,Wunderground v.1.15,2013-09-08 21:32:00,
2013-09-08 14:38:00,99.1,63.2,29.73,SSE,150,0.0,0.0,31,0.00,,,0.00,Wunderground v.1.15,2013-09-08 21:38:00,
2013-09-08 14:44:00,100.2,63.2,29.73,WSW,254,0.0,0.0,30,0.00,,,0.00,Wunderground v.1.15,2013-09-08 21:44:00,
2013-09-08 14:49:00,101.0,62.9,29.73,WSW,245,0.0,0.0,29,0.00,,,0.00,Wunderground v.1.15,2013-09-08 21:49:00,
2013-09-08 14:56:00,101.6,62.4,29.72,SSW,205,0.0,1.0,28,0.00,,,0.00,Wunderground v.1.15,2013-09-08 21:56:00,
2013-09-08 15:02:00,102.2,63.9,29.72,ESE,123,0.0,0.0,29,0.00,,,0.00,Wunderground v.1.15,2013-09-08 22:02:00,
2013-09-08 15:08:00,103.1,61.6,29.72,South,176,0.0,1.0,26,0.00,,,0.00,Wunderground v.1.15,2013-09-08 22:08:00,
2013-09-08 15:14:00,103.0,64.6,29.72,South,184,0.0,0.0,29,0.00,,,0.00,Wunderground v.1.15,2013-09-08 22:14:00,
2013-09-08 15:19:00,102.9,63.5,29.72,South,184,0.0,0.0,28,0.00,,,0.00,Wunderground v.1.15,2013-09-08 22:19:00,
2013-09-08 15:26:00,103.0,63.6,29.71,SSE,158,0.0,0.0,28,0.00,,,0.00,Wunderground v.1.15,2013-09-08 22:26:00,
2013-09-08 15:32:00,103.4,64.9,29.71,SSE,158,0.0,0.0,29,0.00,,,0.00,Wunderground v.1.15,2013-09-08 22:32:00,
2013-09-08 15:37:00,103.7,65.2,29.71,SSE,159,0.0,0.0,29,0.00,,,0.00,Wunderground v.1.15,2013-09-08 22:37:00,
2013-09-08 15:43:00,103.6,64.1,29.70,SSE,151,0.0,1.0,28,0.00,,,0.00,Wunderground v.1.15,2013-09-08 22:43:00,
2013-09-08 15:49:00,103.4,64.9,29.70,SSE,148,0.0,0.0,29,0.00,,,0.00,Wunderground v.1.15,2013-09-08 22:49:00,
2013-09-08 15:56:00,103.2,63.8,29.70,ENE,66,0.0,3.0,28,0.00,,,0.00,Wunderground v.1.15,2013-09-08 22:56:00,
2013-09-08 16:01:00,103.0,63.6,29.70,SE,131,0.0,0.0,28,0.00,,,0.00,Wunderground v.1.15,2013-09-08 23:01:00,
2013-09-08 16:07:00,103.0,63.6,29.70,SE,142,0.0,0.0,28,0.00,,,0.00,Wunderground v.1.15,2013-09-08 23:07:00,
2013-09-08 16:13:00,103.0,63.6,29.70,SE,142,0.0,0.0,28,0.00,,,0.00,Wunderground v.1.15,2013-09-08 23:13:00,
2013-09-08 16:20:00,103.0,64.6,29.70,SE,145,0.0,0.0,29,0.00,,,0.00,Wunderground v.1.15,2013-09-08 23:20:00,
2013-09-08 16:26:00,102.9,63.5,29.70,SE,137,0.0,0.0,28,0.00,,,0.00,Wunderground v.1.15,2013-09-08 23:26:00,
2013-09-08 16:31:00,102.8,63.4,29.70,SE,133,0.0,0.0,28,0.00,,,0.00,Wunderground v.1.15,2013-09-08 23:31:00,
2013-09-08 16:38:00,102.3,63.0,29.70,SE,134,0.0,0.0,28,0.00,,,0.00,Wunderground v.1.15,2013-09-08 23:38:00,
2013-09-08 16:43:00,102.0,63.8,29.70,SE,140,0.0,0.0,29,0.00,,,0.00,Wunderground v.1.15,2013-09-08 23:43:00,
2013-09-08 16:49:00,101.2,60.0,29.70,South,169,0.0,0.0,26,0.00,,,0.00,Wunderground v.1.15,2013-09-08 23:49:00,
2013-09-08 16:56:00,101.1,58.8,29.70,South,170,0.0,0.0,25,0.00,,,0.00,Wunderground v.1.15,2013-09-08 23:56:00,
2013-09-08 17:01:00,101.2,57.7,29.69,South,170,0.0,0.0,24,0.00,,,0.00,Wunderground v.1.15,2013-09-09 00:01:00,
2013-09-08 17:07:00,101.0,59.8,29.69,South,169,0.0,0.0,26,0.00,,,0.00,Wunderground v.1.15,2013-09-09 00:07:00,
2013-09-08 17:13:00,100.7,57.3,29.69,SW,219,0.0,1.0,24,0.00,,,0.00,Wunderground v.1.15,2013-09-09 00:13:00,
2013-09-08 17:19:00,100.2,56.9,29.69,SSW,202,0.0,1.0,24,0.00,,,0.00,Wunderground v.1.15,2013-09-09 00:19:00,
2013-09-08 17:26:00,99.8,58.8,29.69,SSW,200,0.0,1.0,26,0.00,,,0.00,Wunderground v.1.15,2013-09-09 00:26:00,
2013-09-08 17:31:00,99.3,57.3,29.69,South,188,0.0,0.0,25,0.00,,,0.00,Wunderground v.1.15,2013-09-09 00:31:00,
2013-09-08 17:37:00,99.1,57.1,29.69,South,188,0.0,0.0,25,0.00,,,0.00,Wunderground v.1.15,2013-09-09 00:37:00,
2013-09-08 17:43:00,98.7,55.6,29.69,South,189,0.0,0.0,24,0.00,,,0.00,Wunderground v.1.15,2013-09-09 00:43:00,
2013-09-08 17:49:00,98.2,56.4,29.69,South,187,0.0,0.0,25,0.00,,,0.00,Wunderground v.1.15,2013-09-09 00:49:00,
2013-09-08 17:56:00,97.0,55.3,29.69,South,187,0.0,0.0,25,0.00,,,0.00,Wunderground v.1.15,2013-09-09 00:56:00,
2013-09-08 18:01:00,95.8,53.2,29.69,South,187,0.0,0.0,24,0.00,,,0.00,Wunderground v.1.15,2013-09-09 01:01:00,
2013-09-08 18:07:00,94.6,52.2,29.69,SSW,202,0.0,3.0,24,0.00,,,0.00,Wunderground v.1.15,2013-09-09 01:07:00,
2013-09-08 18:13:00,93.4,52.3,29.69,South,179,0.0,2.0,25,0.00,,,0.00,Wunderground v.1.15,2013-09-09 01:13:00,
2013-09-08 18:19:00,92.5,51.6,29.69,South,179,0.0,1.0,25,0.00,,,0.00,Wunderground v.1.15,2013-09-09 01:19:00,
2013-09-08 18:26:00,91.7,50.9,29.69,South,188,1.0,3.0,25,0.00,,,0.00,Wunderground v.1.15,2013-09-09 01:26:00,
2013-09-08 18:31:00,91.0,50.3,29.70,WSW,255,1.0,1.0,25,0.00,,,0.00,Wunderground v.1.15,2013-09-09 01:31:00,
2013-09-08 18:37:00,90.2,49.6,29.70,SSW,200,0.0,1.0,25,0.00,,,0.00,Wunderground v.1.15,2013-09-09 01:37:00,
2013-09-08 18:43:00,89.6,49.1,29.70,SSW,205,0.0,4.0,25,0.00,,,0.00,Wunderground v.1.15,2013-09-09 01:43:00,
2013-09-08 18:49:00,88.9,48.5,29.70,SW,222,0.0,0.0,25,0.00,,,0.00,Wunderground v.1.15,2013-09-09 01:49:00,
2013-09-08 18:56:00,88.2,49.0,29.70,SSW,200,0.0,0.0,26,0.00,,,0.00,Wunderground v.1.15,2013-09-09 01:56:00,
2013-09-08 19:01:00,87.6,48.5,29.70,South,175,0.0,3.0,26,0.00,,,0.00,Wunderground v.1.15,2013-09-09 02:01:00,
2013-09-08 19:07:00,87.1,47.0,29.70,South,185,0.0,3.0,25,0.00,,,0.00,Wunderground v.1.15,2013-09-09 02:07:00,
2013-09-08 19:13:00,86.6,47.6,29.70,South,190,0.0,0.0,26,0.00,,,0.00,Wunderground v.1.15,2013-09-09 02:13:00,
2013-09-08 19:20:00,86.1,47.2,29.70,South,190,0.0,0.0,26,0.00,,,0.00,Wunderground v.1.15,2013-09-09 02:20:00,
2013-09-08 19:27:00,85.6,46.8,29.70,South,190,0.0,0.0,26,0.00,,,0.00,Wunderground v.1.15,2013-09-09 02:27:00,
2013-09-08 19:32:00,85.2,47.4,29.71,South,190,0.0,0.0,27,0.00,,,0.00,Wunderground v.1.15,2013-09-09 02:32:00,
2013-09-08 19:38:00,84.7,46.0,29.71,WNW,290,0.0,3.0,26,0.00,,,0.00,Wunderground v.1.15,2013-09-09 02:38:00,
2013-09-08 19:44:00,84.9,48.2,29.71,WNW,290,0.0,0.0,28,0.00,,,0.00,Wunderground v.1.15,2013-09-09 02:44:00,
2013-09-08 19:50:00,84.4,47.7,29.71,WNW,290,0.0,0.0,28,0.00,,,0.00,Wunderground v.1.15,2013-09-09 02:50:00,
2013-09-08 19:56:00,83.3,47.7,29.72,WNW,290,0.0,0.0,29,0.00,,,0.00,Wunderground v.1.15,2013-09-09 02:56:00,
2013-09-08 20:02:00,82.4,50.4,29.72,WNW,290,0.0,0.0,33,0.00,,,0.00,Wunderground v.1.15,2013-09-09 03:02:00,
2013-09-08 20:08:00,81.6,52.8,29.72,WNW,290,0.0,0.0,37,0.00,,,0.00,Wunderground v.1.15,2013-09-09 03:08:00,
2013-09-08 20:14:00,80.9,55.0,29.72,WNW,290,0.0,0.0,41,0.00,,,0.00,Wunderground v.1.15,2013-09-09 03:14:00,
2013-09-08 20:20:00,80.1,55.6,29.72,WNW,290,0.0,0.0,43,0.00,,,0.00,Wunderground v.1.15,2013-09-09 03:20:00,
2013-09-08 20:26:00,79.4,54.3,29.72,WNW,290,0.0,0.0,42,0.00,,,0.00,Wunderground v.1.15,2013-09-09 03:26:00,
2013-09-08 20:32:00,78.8,52.4,29.73,WNW,290,0.0,0.0,40,0.00,,,0.00,Wunderground v.1.15,2013-09-09 03:32:00,
2013-09-08 20:38:00,78.2,51.9,29.73,WNW,290,0.0,0.0,40,0.00,,,0.00,Wunderground v.1.15,2013-09-09 03:38:00,
2013-09-08 20:44:00,77.4,50.5,29.73,WNW,290,0.0,0.0,39,0.00,,,0.00,Wunderground v.1.15,2013-09-09 03:44:00,
2013-09-08 20:50:00,76.5,50.4,29.73,WNW,290,0.0,0.0,40,0.00,,,0.00,Wunderground v.1.15,2013-09-09 03:50:00,
2013-09-08 20:56:00,75.6,50.2,29.73,WNW,290,0.0,0.0,41,0.00,,,0.00,Wunderground v.1.15,2013-09-09 03:56:00,
2013-09-08 21:02:00,74.7,48.8,29.73,WNW,290,0.0,0.0,40,0.00,,,0.00,Wunderground v.1.15,2013-09-09 04:02:00,
2013-09-08 21:04:00,74.4,48.5,29.73,WNW,290,0.0,0.0,40,0.00,,,0.00,Wunderground v.1.15,2013-09-09 04:04:00,
2013-09-08 21:06:00,74.2,49.6,29.73,WNW,290,0.0,0.0,42,0.00,,,0.00,Wunderground v.1.15,2013-09-09 04:06:00,
2013-09-08 21:12:00,73.4,48.9,29.74,WNW,290,0.0,0.0,42,0.00,,,0.00,Wunderground v.1.15,2013-09-09 04:12:00,
2013-09-08 21:18:00,72.8,49.0,29.74,WNW,290,0.0,0.0,43,0.00,,,0.00,Wunderground v.1.15,2013-09-09 04:18:00,
2013-09-08 21:22:00,72.4,48.6,29.74,WNW,290,0.0,0.0,43,0.00,,,0.00,Wunderground v.1.15,2013-09-09 04:22:00,
2013-09-08 21:28:00,71.7,48.6,29.74,WNW,290,0.0,0.0,44,0.00,,,0.00,Wunderground v.1.15,2013-09-09 04:28:00,
2013-09-08 21:34:00,71.2,48.8,29.74,WNW,290,0.0,0.0,45,0.00,,,0.00,Wunderground v.1.15,2013-09-09 04:34:00,
2013-09-08 21:36:00,70.9,47.9,29.74,WNW,290,0.0,0.0,44,0.00,,,0.00,Wunderground v.1.15,2013-09-09 04:36:00,
2013-09-08 21:42:00,70.4,47.4,29.74,WNW,290,0.0,0.0,44,0.00,,,0.00,Wunderground v.1.15,2013-09-09 04:42:00,
2013-09-08 21:48:00,69.8,48.1,29.74,WNW,290,0.0,0.0,46,0.00,,,0.00,Wunderground v.1.15,2013-09-09 04:48:00,
2013-09-08 21:54:00,69.4,48.3,29.74,WNW,290,0.0,0.0,47,0.00,,,0.00,Wunderground v.1.15,2013-09-09 04:54:00,
2013-09-08 22:00:00,69.0,47.9,29.74,WNW,290,0.0,0.0,47,0.00,,,0.00,Wunderground v.1.15,2013-09-09 05:00:00,
2013-09-08 22:06:00,68.6,47.6,29.74,WNW,290,0.0,0.0,47,0.00,,,0.00,Wunderground v.1.15,2013-09-09 05:06:00,
2013-09-08 22:12:00,68.3,47.3,29.74,WNW,290,0.0,0.0,47,0.00,,,0.00,Wunderground v.1.15,2013-09-09 05:12:00,
2013-09-08 22:18:00,67.8,47.4,29.74,WNW,290,0.0,0.0,48,0.00,,,0.00,Wunderground v.1.15,2013-09-09 05:18:00,
2013-09-08 22:24:00,67.3,47.5,29.74,WNW,290,0.0,0.0,49,0.00,,,0.00,Wunderground v.1.15,2013-09-09 05:24:00,
2013-09-08 22:30:00,67.0,47.7,29.74,WNW,290,0.0,0.0,50,0.00,,,0.00,Wunderground v.1.15,2013-09-09 05:30:00,
2013-09-08 22:36:00,66.6,47.4,29.74,WNW,290,0.0,0.0,50,0.00,,,0.00,Wunderground v.1.15,2013-09-09 05:36:00,
2013-09-08 22:42:00,66.2,48.0,29.74,WNW,290,0.0,0.0,52,0.00,,,0.00,Wunderground v.1.15,2013-09-09 05:42:00,
2013-09-08 22:48:00,65.9,48.3,29.74,WNW,290,0.0,0.0,53,0.00,,,0.00,Wunderground v.1.15,2013-09-09 05:48:00,
2013-09-08 22:54:00,65.7,48.1,29.74,WNW,290,0.0,0.0,53,0.00,,,0.00,Wunderground v.1.15,2013-09-09 05:54:00,
2013-09-08 23:00:00,65.4,47.8,29.74,WNW,290,0.0,0.0,53,0.00,,,0.00,Wunderground v.1.15,2013-09-09 06:00:00,
2013-09-08 23:06:00,65.1,47.5,29.74,WNW,290,0.0,0.0,53,0.00,,,0.00,Wunderground v.1.15,2013-09-09 06:06:00,
2013-09-08 23:12:00,64.8,48.2,29.74,WNW,290,0.0,0.0,55,0.00,,,0.00,Wunderground v.1.15,2013-09-09 06:12:00,
2013-09-08 23:18:00,64.5,48.4,29.74,WNW,290,0.0,0.0,56,0.00,,,0.00,Wunderground v.1.15,2013-09-09 06:18:00,
2013-09-08 23:24:00,64.3,48.3,29.74,WNW,290,0.0,0.0,56,0.00,,,0.00,Wunderground v.1.15,2013-09-09 06:24:00,
2013-09-08 23:30:00,64.0,48.5,29.74,WNW,290,0.0,0.0,57,0.00,,,0.00,Wunderground v.1.15,2013-09-09 06:30:00,
2013-09-08 23:36:00,63.8,48.7,29.74,WNW,290,0.0,0.0,58,0.00,,,0.00,Wunderground v.1.15,2013-09-09 06:36:00,
2013-09-08 23:42:00,63.6,49.0,29.74,WNW,290,0.0,0.0,59,0.00,,,0.00,Wunderground v.1.15,2013-09-09 06:42:00,
2013-09-08 23:48:00,63.4,48.8,29.74,WNW,290,0.0,0.0,59,0.00,,,0.00,Wunderground v.1.15,2013-09-09 06:48:00,
2013-09-08 23:54:00,63.2,48.2,29.74,WNW,290,0.0,0.0,58,0.00,,,0.00,Wunderground v.1.15,2013-09-09 06:54:00,